createdAt,value
2022-07-28T00:00:26.145Z,95431.88
2022-07-28T00:03:07.184Z,95430.96
2022-07-28T00:05:36.319Z,95426.62
2022-07-28T00:08:05.736Z,95427.80
2022-07-28T00:10:33.825Z,95426.72
2022-07-28T00:13:02.120Z,95428.05
2022-07-28T00:15:32.409Z,95425.59
2022-07-28T00:18:01.121Z,95431.53
2022-07-28T00:20:30.931Z,95429.52
2022-07-28T00:22:59.284Z,95427.52
2022-07-28T00:25:28.726Z,95425.48
2022-07-28T00:27:56.986Z,95425.27
2022-07-28T00:30:25.239Z,95425.98
2022-07-28T00:32:53.619Z,95427.69
2022-07-28T00:35:30.419Z,95427.57
2022-07-28T00:38:01.132Z,95427.83
2022-07-28T00:40:48.772Z,95422.35
2022-07-28T00:43:17.254Z,95421.52
2022-07-28T00:45:45.532Z,95421.66
2022-07-28T00:48:14.339Z,95420.80
2022-07-28T00:50:45.163Z,95424.59
2022-07-28T00:53:13.540Z,95425.77
2022-07-28T00:56:05.726Z,95425.39
2022-07-28T00:58:30.713Z,95420.46
2022-07-28T01:00:59.062Z,95422.60
2022-07-28T01:03:29.445Z,95421.09
2022-07-28T01:06:07.496Z,95424.20
2022-07-28T01:09:03.625Z,95426.30
2022-07-28T01:11:43.083Z,95424.39
2022-07-28T01:14:21.787Z,95419.44
2022-07-28T01:16:58.059Z,95416.13
2022-07-28T01:19:26.048Z,95422.27
2022-07-28T01:21:55.877Z,95420.30
2022-07-28T01:24:31.608Z,95417.54
2022-07-28T01:27:16.462Z,95419.44
2022-07-28T01:29:53.683Z,95412.23
2022-07-28T01:32:33.514Z,95415.48
2022-07-28T01:35:37.690Z,95413.17
2022-07-28T01:38:08.182Z,95415.13
2022-07-28T01:40:37.450Z,95412.29
2022-07-28T01:43:09.513Z,95412.89
2022-07-28T01:45:44.916Z,95412.18
2022-07-28T01:48:17.054Z,95408.30
2022-07-28T01:50:49.002Z,95410.84
2022-07-28T01:53:18.683Z,95405.93
2022-07-28T01:55:49.177Z,95409.55
2022-07-28T01:58:20.588Z,95410.67
2022-07-28T02:00:50.741Z,95414.10
2022-07-28T02:03:20.876Z,95415.77
2022-07-28T02:05:50.562Z,95417.23
2022-07-28T02:08:21.497Z,95418.38
2022-07-28T02:11:11.376Z,95418.92
2022-07-28T02:13:40.097Z,95421.84
2022-07-28T02:16:11.745Z,95426.41
2022-07-28T02:18:42.393Z,95432.55
2022-07-28T02:21:12.093Z,95428.91
2022-07-28T02:23:43.364Z,95425.98
2022-07-28T02:26:13.758Z,95425.73
2022-07-28T02:28:44.335Z,95431.35
2022-07-28T02:31:25.200Z,95426.36
2022-07-28T02:34:00.265Z,95429.73
2022-07-28T02:36:39.624Z,95429.09
2022-07-28T02:39:19.465Z,95429.23
2022-07-28T02:41:55.730Z,95429.21
2022-07-28T02:44:32.017Z,95427.23
2022-07-28T02:47:01.962Z,95425.94
2022-07-28T02:49:35.613Z,95433.83
2022-07-28T02:52:08.204Z,95439.31
2022-07-28T02:54:37.543Z,95440.30
2022-07-28T02:57:07.108Z,95443.84
2022-07-28T02:59:36.651Z,95444.63
2022-07-28T03:02:06.840Z,95448.67
2022-07-28T03:04:55.238Z,95449.94
2022-07-28T03:07:23.573Z,95453.30
2022-07-28T03:09:51.893Z,95457.25
2022-07-28T03:12:20.169Z,95458.58
2022-07-28T03:14:49.256Z,95457.95
2022-07-28T03:17:18.369Z,95458.66
2022-07-28T03:19:46.834Z,95461.77
2022-07-28T03:22:15.390Z,95465.23
2022-07-28T03:24:49.860Z,95463.94
2022-07-28T03:27:20.690Z,95463.33
2022-07-28T03:29:54.168Z,95463.77
2022-07-28T03:32:25.860Z,95462.95
2022-07-28T03:34:54.653Z,95463.58
2022-07-28T03:37:38.551Z,95469.20
2022-07-28T03:40:10.550Z,95470.36
2022-07-28T03:42:39.568Z,95467.47
2022-07-28T03:45:08.871Z,95472.34
2022-07-28T03:47:37.222Z,95466.70
2022-07-28T03:50:05.891Z,95468.80
2022-07-28T03:52:34.262Z,95465.94
2022-07-28T03:55:02.659Z,95465.66
2022-07-28T03:57:30.795Z,95470.16
2022-07-28T03:59:59.199Z,95467.52
2022-07-28T04:02:27.720Z,95465.80
2022-07-28T04:04:56.166Z,95467.29
2022-07-28T04:07:24.703Z,95467.93
2022-07-28T04:09:53.023Z,95472.63
2022-07-28T04:12:21.300Z,95473.55
2022-07-28T04:14:49.989Z,95471.52
2022-07-28T04:17:18.273Z,95470.73
2022-07-28T04:19:46.480Z,95472.73
2022-07-28T04:22:14.727Z,95473.35
2022-07-28T04:24:43.219Z,95475.86
2022-07-28T04:27:11.718Z,95474.42
2022-07-28T04:29:39.965Z,95469.77
2022-07-28T04:32:08.250Z,95469.83
2022-07-28T04:34:36.650Z,95471.98
2022-07-28T04:37:04.905Z,95474.45
2022-07-28T04:39:33.225Z,95474.11
2022-07-28T04:42:02.192Z,95470.48
2022-07-28T04:44:30.465Z,95470.38
2022-07-28T04:46:58.767Z,95475.39
2022-07-28T04:49:27.125Z,95477.38
2022-07-28T04:51:57.097Z,95483.27
2022-07-28T04:54:26.942Z,95480.83
2022-07-28T04:56:55.327Z,95478.56
2022-07-28T04:59:24.430Z,95476.80
2022-07-28T05:01:53.783Z,95476.56
2022-07-28T05:04:22.190Z,95471.53
2022-07-28T05:06:50.801Z,95472.73
2022-07-28T05:09:18.923Z,95472.52
2022-07-28T05:11:47.665Z,95477.66
2022-07-28T05:14:17.635Z,95474.83
2022-07-28T05:16:46.119Z,95479.27
2022-07-28T05:19:43.799Z,95482.85
2022-07-28T05:22:12.107Z,95476.42
2022-07-28T05:24:40.745Z,95477.45
2022-07-28T05:27:09.006Z,95479.68
2022-07-28T05:29:47.323Z,95484.51
2022-07-28T05:32:17.693Z,95489.79
2022-07-28T05:34:46.358Z,95489.80
2022-07-28T05:37:17.246Z,95488.88
2022-07-28T05:39:45.793Z,95488.20
2022-07-28T05:42:25.893Z,95490.25
2022-07-28T05:45:01.785Z,95484.05
2022-07-28T05:47:32.186Z,95489.80
2022-07-28T05:50:02.218Z,95487.75
2022-07-28T05:52:32.830Z,95490.82
2022-07-28T05:55:00.982Z,95486.81
2022-07-28T05:57:29.047Z,95488.23
2022-07-28T05:59:57.323Z,95488.60
2022-07-28T06:02:26.207Z,95487.71
2022-07-28T06:04:54.901Z,95493.81
2022-07-28T06:07:23.089Z,95493.71
2022-07-28T06:10:16.567Z,95495.78
2022-07-28T06:12:49.004Z,95493.02
2022-07-28T06:15:18.990Z,95495.02
2022-07-28T06:17:47.965Z,95497.02
2022-07-28T06:20:17.066Z,95498.59
2022-07-28T06:22:50.295Z,95498.64
2022-07-28T06:25:23.674Z,95492.88
2022-07-28T06:27:54.390Z,95495.77
2022-07-28T06:30:23.189Z,95495.79
2022-07-28T06:32:51.459Z,95493.98
2022-07-28T06:35:20.459Z,95494.27
2022-07-28T06:37:49.996Z,95494.65
2022-07-28T06:40:20.178Z,95498.88
2022-07-28T06:42:50.250Z,95495.27
2022-07-28T06:45:20.690Z,95498.59
2022-07-28T06:47:50.754Z,95492.95
2022-07-28T06:50:25.800Z,95492.57
2022-07-28T06:52:57.062Z,95490.46
2022-07-28T06:55:34.430Z,95491.17
2022-07-28T06:58:05.232Z,95491.42
2022-07-28T07:00:33.612Z,95493.34
2022-07-28T07:03:01.932Z,95495.05
2022-07-28T07:05:32.546Z,95493.61
2022-07-28T07:08:01.268Z,95492.89
2022-07-28T07:10:29.476Z,95494.45
2022-07-28T07:12:57.806Z,95502.11
2022-07-28T07:15:25.991Z,95500.39
2022-07-28T07:17:54.566Z,95495.86
2022-07-28T07:20:22.871Z,95494.48
2022-07-28T07:22:50.982Z,95492.92
2022-07-28T07:25:19.940Z,95494.67
2022-07-28T07:27:48.315Z,95493.57
2022-07-28T07:30:17.386Z,95498.08
2022-07-28T07:32:45.543Z,95493.14
2022-07-28T07:35:13.944Z,95495.17
2022-07-28T07:37:42.278Z,95494.73
2022-07-28T07:40:10.728Z,95493.85
2022-07-28T07:42:39.050Z,95495.56
2022-07-28T07:45:07.884Z,95492.30
2022-07-28T07:47:36.303Z,95493.49
2022-07-28T07:50:05.190Z,95492.92
2022-07-28T07:52:33.555Z,95495.09
2022-07-28T07:55:01.972Z,95495.01
2022-07-28T07:57:30.397Z,95496.31
2022-07-28T07:59:58.670Z,95498.89
2022-07-28T08:02:27.066Z,95501.88
2022-07-28T08:04:56.874Z,95501.77
2022-07-28T08:07:25.369Z,95500.33
2022-07-28T08:09:54.570Z,95501.30
2022-07-28T08:12:24.799Z,95500.66
2022-07-28T08:14:54.917Z,95509.65
2022-07-28T08:17:26.254Z,95514.19
2022-07-28T08:19:56.162Z,95516.45
2022-07-28T08:22:24.754Z,95516.10
2022-07-28T08:24:53.472Z,95515.31
2022-07-28T08:27:22.030Z,95515.93
2022-07-28T08:29:50.611Z,95515.59
2022-07-28T08:37:10.851Z,95513.57
2022-07-28T08:39:39.272Z,95510.86
2022-07-28T08:42:16.094Z,95510.55
2022-07-28T08:44:50.640Z,95512.14
2022-07-28T08:47:21.084Z,95512.55
2022-07-28T08:49:50.661Z,95510.98
2022-07-28T08:52:21.832Z,95508.41
2022-07-28T08:54:51.176Z,95511.70
2022-07-28T09:06:28.363Z,95512.00
2022-07-28T09:08:56.440Z,95511.58
2022-07-28T09:11:24.662Z,95511.98
2022-07-28T09:13:54.207Z,95509.73
2022-07-28T09:16:22.910Z,95514.93
2022-07-28T09:18:51.286Z,95510.83
2022-07-28T09:21:20.082Z,95509.36
2022-07-28T09:23:49.815Z,95507.97
2022-07-28T09:26:18.691Z,95504.26
2022-07-28T09:28:51.002Z,95500.38
2022-07-28T09:31:20.722Z,95503.65
2022-07-28T09:34:04.718Z,95499.79
2022-07-28T09:36:41.700Z,95499.93
2022-07-28T09:39:10.797Z,95502.77
2022-07-28T09:41:56.171Z,95503.77
2022-07-28T09:44:27.419Z,95506.35
2022-07-28T09:46:56.618Z,95502.54
2022-07-28T09:49:42.985Z,95504.71
2022-07-28T09:52:11.569Z,95506.71
2022-07-28T09:54:41.243Z,95506.56
2022-07-28T09:57:12.881Z,95506.42
2022-07-28T09:59:45.431Z,95505.98
2022-07-28T10:02:27.407Z,95506.94
2022-07-28T10:04:56.167Z,95508.36
2022-07-28T10:07:24.345Z,95505.80
2022-07-28T10:10:01.612Z,95503.80
2022-07-28T10:16:55.728Z,95495.71
2022-07-28T10:19:24.936Z,95496.89
2022-07-28T10:21:54.532Z,95493.89
2022-07-28T10:24:23.526Z,95496.73
2022-07-28T10:26:54.270Z,95495.83
2022-07-28T10:29:24.289Z,95488.83
2022-07-28T10:32:00.861Z,95490.54
2022-07-28T10:34:39.615Z,95484.61
2022-07-28T10:37:14.006Z,95483.52
2022-07-28T10:39:48.454Z,95480.58
2022-07-28T10:42:17.135Z,95481.89
2022-07-28T10:44:46.971Z,95481.66
2022-07-28T10:47:18.584Z,95479.21
2022-07-28T10:49:49.324Z,95474.81
2022-07-28T10:52:45.689Z,95474.16
2022-07-28T10:55:35.347Z,95472.31
2022-07-28T10:58:25.099Z,95470.99
2022-07-28T11:00:58.184Z,95471.95
2022-07-28T11:03:47.668Z,95466.10
2022-07-28T11:06:35.630Z,95461.85
2022-07-28T11:09:16.382Z,95467.58
2022-07-28T11:11:50.413Z,95467.53
2022-07-28T11:14:24.989Z,95466.78
2022-07-28T11:17:05.390Z,95463.73
2022-07-28T11:20:16.397Z,95466.77
2022-07-28T11:22:34.845Z,95464.08
2022-07-28T11:25:18.575Z,95459.95
2022-07-28T11:27:50.803Z,95461.48
2022-07-28T11:30:19.651Z,95460.42
2022-07-28T11:32:51.007Z,95460.27
2022-07-28T11:35:20.766Z,95455.45
2022-07-28T11:38:01.238Z,95459.65
2022-07-28T11:40:35.402Z,95455.45
2022-07-28T11:43:28.587Z,95454.77
2022-07-28T11:46:09.428Z,95447.36
2022-07-28T11:48:41.243Z,95443.25
2022-07-28T11:51:11.750Z,95442.14
2022-07-28T11:53:47.459Z,95439.33
2022-07-28T11:56:27.102Z,95437.77
2022-07-28T11:59:01.030Z,95436.67
2022-07-28T12:10:55.747Z,95432.89
2022-07-28T12:13:28.166Z,95431.77
2022-07-28T12:15:56.880Z,95438.55
2022-07-28T12:18:25.449Z,95441.10
2022-07-28T12:20:55.623Z,95433.82
2022-07-28T12:23:39.035Z,95433.90
2022-07-28T12:26:31.295Z,95429.50
2022-07-28T12:29:00.942Z,95427.80
2022-07-28T12:31:33.273Z,95424.42
2022-07-28T12:34:09.893Z,95422.80
2022-07-28T12:36:39.183Z,95421.25
2022-07-28T12:39:12.595Z,95423.14
2022-07-28T12:41:41.396Z,95421.27
2022-07-28T12:44:43.337Z,95421.98
2022-07-28T12:56:11.939Z,95414.27
2022-07-28T12:58:40.172Z,95408.87
2022-07-28T13:01:10.187Z,95401.99
2022-07-28T13:03:49.488Z,95413.06
2022-07-28T13:06:21.797Z,95415.23
2022-07-28T13:08:54.146Z,95414.11
2022-07-28T13:11:46.029Z,95413.64
2022-07-28T13:14:16.291Z,95413.43
2022-07-28T13:16:57.748Z,95414.21
2022-07-28T13:19:25.999Z,95415.92
2022-07-28T13:22:00.776Z,95418.09
2022-07-28T13:24:32.309Z,95418.80
2022-07-28T13:27:02.535Z,95418.42
2022-07-28T13:29:35.757Z,95414.23
2022-07-28T13:32:04.143Z,95414.23
2022-07-28T13:34:32.418Z,95414.88
2022-07-28T13:37:00.671Z,95420.88
2022-07-28T13:39:28.832Z,95418.78
2022-07-28T13:41:59.289Z,95423.91
2022-07-28T13:44:29.076Z,95422.52
2022-07-28T13:47:00.149Z,95426.43
2022-07-28T13:49:31.813Z,95425.77
2022-07-28T13:52:01.726Z,95424.11
2022-07-28T13:54:29.879Z,95424.35
2022-07-28T13:56:58.085Z,95426.42
2022-07-28T13:59:39.380Z,95428.69
2022-07-28T14:02:15.197Z,95431.61
2022-07-28T14:04:46.106Z,95433.50
2022-07-28T14:07:20.842Z,95435.41
2022-07-28T14:09:50.959Z,95449.80
2022-07-28T14:12:19.622Z,95449.71
2022-07-28T14:14:48.696Z,95451.90
2022-07-28T14:17:43.329Z,95456.70
2022-07-28T14:20:16.422Z,95461.92
2022-07-28T14:22:46.266Z,95463.54
2022-07-28T14:25:20.952Z,95465.09
2022-07-28T14:27:52.175Z,95468.77
2022-07-28T14:30:22.376Z,95469.90
2022-07-28T14:32:50.545Z,95468.12
2022-07-28T14:35:19.958Z,95468.02
2022-07-28T14:40:39.422Z,95474.05
2022-07-28T14:43:08.990Z,95480.17
2022-07-28T14:46:01.641Z,95485.67
2022-07-28T14:48:26.316Z,95487.98
2022-07-28T14:50:57.280Z,95494.48
2022-07-28T14:53:27.959Z,95494.70
2022-07-28T14:55:56.424Z,95496.98
2022-07-28T14:58:24.628Z,95500.35
2022-07-28T15:00:53.030Z,95504.73
2022-07-28T15:03:21.378Z,95507.05
2022-07-28T15:05:49.598Z,95503.60
2022-07-28T15:08:17.790Z,95508.84
2022-07-28T15:10:46.007Z,95507.18
2022-07-28T15:13:17.355Z,95508.41
2022-07-28T15:15:45.708Z,95510.30
2022-07-28T15:18:14.044Z,95509.46
2022-07-28T15:20:43.462Z,95506.95
2022-07-28T15:23:11.753Z,95506.36
2022-07-28T15:25:39.897Z,95503.84
2022-07-28T15:28:08.449Z,95501.55
2022-07-28T15:30:41.414Z,95501.05
2022-07-28T15:33:20.421Z,95502.55
2022-07-28T15:35:58.469Z,95505.18
2022-07-28T15:38:31.573Z,95506.58
2022-07-28T15:41:00.366Z,95508.38
2022-07-28T15:43:29.320Z,95511.45
2022-07-28T15:45:57.583Z,95513.54
2022-07-28T15:48:26.010Z,95511.15
2022-07-28T15:50:54.203Z,95508.90
2022-07-28T15:53:22.766Z,95507.42
2022-07-28T15:55:51.983Z,95507.17
2022-07-28T15:58:21.839Z,95508.86
2022-07-28T16:00:51.085Z,95509.02
2022-07-28T16:03:20.489Z,95503.50
2022-07-28T16:05:52.046Z,95498.64
2022-07-28T16:08:22.337Z,95497.41
2022-07-28T16:10:54.724Z,95500.89
2022-07-28T16:13:35.801Z,95500.30
2022-07-28T16:16:14.919Z,95499.02
2022-07-28T16:18:45.010Z,95498.02
2022-07-28T16:21:13.289Z,95497.48
2022-07-28T16:23:41.385Z,95498.51
2022-07-28T16:26:10.748Z,95498.14
2022-07-28T16:28:39.064Z,95494.60
2022-07-28T16:31:07.719Z,95492.58
2022-07-28T16:33:36.073Z,95488.09
2022-07-28T16:36:04.869Z,95487.91
2022-07-28T16:38:33.254Z,95492.13
2022-07-28T16:41:01.476Z,95496.38
2022-07-28T16:43:29.705Z,95501.34
2022-07-28T16:45:58.061Z,95500.10
2022-07-28T16:48:26.464Z,95506.46
2022-07-28T16:50:57.004Z,95505.99
2022-07-28T16:53:25.376Z,95503.02
2022-07-28T16:55:53.756Z,95504.70
2022-07-28T16:58:22.889Z,95503.39
2022-07-28T17:00:51.033Z,95502.24
2022-07-28T17:03:19.321Z,95511.70
2022-07-28T17:05:48.815Z,95517.41
2022-07-28T17:08:17.198Z,95518.29
2022-07-28T17:10:46.952Z,95518.50
2022-07-28T17:13:16.517Z,95522.63
2022-07-28T17:15:44.670Z,95523.52
2022-07-28T17:18:12.966Z,95524.80
2022-07-28T17:20:41.886Z,95527.61
2022-07-28T17:23:10.283Z,95529.63
2022-07-28T17:28:27.377Z,95532.58
2022-07-28T17:30:55.840Z,95536.70
2022-07-28T17:33:25.367Z,95540.00
2022-07-28T17:35:57.882Z,95542.16
2022-07-28T17:38:32.553Z,95540.98
2022-07-28T17:41:04.464Z,95544.98
2022-07-28T17:43:33.149Z,95545.94
2022-07-28T17:46:02.918Z,95549.85
2022-07-28T17:48:38.574Z,95551.83
2022-07-28T17:51:07.118Z,95548.41
2022-07-28T17:53:39.016Z,95544.13
2022-07-28T17:56:08.723Z,95546.05
2022-07-28T17:58:37.963Z,95548.39
2022-07-28T18:01:12.453Z,95546.70
2022-07-28T18:03:57.691Z,95551.20
2022-07-28T18:06:30.989Z,95557.76
2022-07-28T18:09:03.724Z,95553.48
2022-07-28T18:11:57.381Z,95555.48
2022-07-28T18:14:28.163Z,95560.16
2022-07-28T18:16:57.741Z,95562.81
2022-07-28T18:19:27.459Z,95565.40
2022-07-28T18:21:56.874Z,95567.09
2022-07-28T18:24:25.252Z,95575.12
2022-07-28T18:26:54.079Z,95580.30
2022-07-28T18:29:22.934Z,95581.61
2022-07-28T18:31:52.115Z,95585.02
2022-07-28T18:34:24.722Z,95583.16
2022-07-28T18:36:54.177Z,95584.83
2022-07-28T18:39:22.595Z,95584.50
2022-07-28T18:41:54.106Z,95591.33
2022-07-28T18:44:22.683Z,95599.13
2022-07-28T18:46:51.140Z,95599.32
2022-07-28T18:49:20.228Z,95601.80
2022-07-28T18:51:49.623Z,95596.92
2022-07-28T18:54:27.212Z,95605.04
2022-07-28T18:56:56.940Z,95603.16
2022-07-28T18:59:25.739Z,95603.97
2022-07-28T19:01:54.077Z,95603.39
2022-07-28T19:04:22.377Z,95606.23
2022-07-28T19:06:51.005Z,95608.88
2022-07-28T19:09:19.978Z,95606.83
2022-07-28T19:11:48.454Z,95609.95
2022-07-28T19:14:17.817Z,95610.48
2022-07-28T19:16:46.635Z,95612.18
2022-07-28T19:19:15.164Z,95615.66
2022-07-28T19:21:43.961Z,95612.48
2022-07-28T19:24:14.057Z,95614.19
2022-07-28T19:26:45.353Z,95617.63
2022-07-28T19:29:14.074Z,95619.16
2022-07-28T19:31:42.918Z,95626.25
2022-07-28T19:34:11.493Z,95626.23
2022-07-28T19:36:41.901Z,95629.56
2022-07-28T19:39:12.412Z,95632.58
2022-07-28T19:41:40.942Z,95634.61
2022-07-28T19:44:09.677Z,95635.55
2022-07-28T19:46:39.504Z,95638.33
2022-07-28T19:49:09.139Z,95645.52
2022-07-28T19:51:38.129Z,95643.72
2022-07-28T19:54:06.585Z,95648.17
2022-07-28T19:56:34.966Z,95645.83
2022-07-28T19:59:03.482Z,95648.91
2022-07-28T20:01:31.992Z,95650.03
2022-07-28T20:04:04.996Z,95648.05
2022-07-28T20:06:34.735Z,95643.96
2022-07-28T20:09:04.359Z,95645.16
2022-07-28T20:11:33.137Z,95646.77
2022-07-28T20:14:01.552Z,95643.59
2022-07-28T20:16:30.318Z,95644.34
2022-07-28T20:18:58.585Z,95645.09
2022-07-28T20:21:26.764Z,95647.08
2022-07-28T20:23:57.453Z,95645.59
2022-07-28T20:26:27.037Z,95650.68
2022-07-28T20:28:58.673Z,95653.14
2022-07-28T20:31:27.223Z,95649.13
2022-07-28T20:33:56.746Z,95651.95
2022-07-28T20:36:29.418Z,95651.92
2022-07-28T20:38:58.252Z,95648.70
2022-07-28T20:41:26.495Z,95645.73
2022-07-28T20:44:26.184Z,95647.94
2022-07-28T20:46:43.172Z,95644.54
2022-07-28T20:49:11.552Z,95640.60
2022-07-28T20:51:40.271Z,95635.24
2022-07-28T20:54:19.234Z,95637.09
2022-07-28T20:56:48.355Z,95636.18
2022-07-28T20:59:16.809Z,95634.64
2022-07-28T21:01:45.197Z,95632.58
2022-07-28T21:04:13.907Z,95631.05
2022-07-28T21:06:50.911Z,95629.66
2022-07-28T21:09:20.163Z,95629.82
2022-07-28T21:11:48.536Z,95628.23
2022-07-28T21:14:17.397Z,95628.83
2022-07-28T21:16:45.951Z,95634.56
2022-07-28T21:19:14.205Z,95636.48
2022-07-28T21:21:42.680Z,95636.15
2022-07-28T21:24:10.900Z,95638.20
2022-07-28T21:26:42.097Z,95638.67
2022-07-28T21:29:12.499Z,95638.38
2022-07-28T21:32:02.172Z,95643.67
2022-07-28T21:34:34.311Z,95643.20
2022-07-28T21:37:06.966Z,95650.12
2022-07-28T21:39:35.388Z,95652.68
2022-07-28T21:42:07.684Z,95654.92
2022-07-28T21:44:39.891Z,95656.78
2022-07-28T21:47:08.167Z,95659.17
2022-07-28T21:49:36.439Z,95655.73
2022-07-28T21:52:05.124Z,95657.78
2022-07-28T21:54:33.513Z,95658.80
2022-07-28T21:57:01.790Z,95664.86
2022-07-28T21:59:30.070Z,95665.77
2022-07-28T22:01:58.366Z,95668.48
2022-07-28T22:04:26.764Z,95667.52
2022-07-28T22:06:55.212Z,95668.21
2022-07-28T22:09:23.519Z,95671.03
2022-07-28T22:11:51.970Z,95672.14
2022-07-28T22:14:20.473Z,95671.73
2022-07-28T22:16:48.915Z,95680.39
2022-07-28T22:19:17.320Z,95681.00
2022-07-28T22:21:45.622Z,95686.69
2022-07-28T22:24:16.887Z,95686.89
2022-07-28T22:26:45.276Z,95685.89
2022-07-28T22:29:13.812Z,95685.62
2022-07-28T22:31:42.130Z,95687.41
2022-07-28T22:34:10.716Z,95680.31
2022-07-28T22:36:39.056Z,95678.94
2022-07-28T22:39:07.458Z,95682.41
2022-07-28T22:41:35.870Z,95686.38
2022-07-28T22:44:04.197Z,95691.02
2022-07-28T22:46:34.992Z,95692.71
2022-07-28T22:49:04.597Z,95694.14
2022-07-28T22:51:33.371Z,95690.29
2022-07-28T22:54:02.231Z,95692.49
2022-07-28T22:56:34.964Z,95689.52
2022-07-28T22:59:06.769Z,95692.17
2022-07-28T23:01:36.120Z,95685.73
2022-07-28T23:04:05.754Z,95685.89
2022-07-28T23:06:36.028Z,95689.21
2022-07-28T23:09:04.848Z,95689.92
2022-07-28T23:11:33.179Z,95694.52
2022-07-28T23:14:01.539Z,95689.69
2022-07-28T23:16:29.975Z,95690.04
2022-07-28T23:18:59.049Z,95686.52
2022-07-28T23:21:27.418Z,95681.68
2022-07-28T23:23:55.508Z,95679.85
2022-07-28T23:26:23.893Z,95676.52
2022-07-28T23:28:52.164Z,95677.56
2022-07-28T23:31:20.452Z,95678.16
2022-07-28T23:33:56.249Z,95675.77
2022-07-28T23:36:27.895Z,95675.56
2022-07-28T23:38:58.759Z,95677.15
2022-07-28T23:41:27.360Z,95676.00
2022-07-28T23:43:56.056Z,95675.93
2022-07-28T23:46:25.098Z,95675.27
2022-07-28T23:48:53.465Z,95678.00
2022-07-28T23:51:46.741Z,95670.35
2022-07-28T23:54:11.179Z,95674.09
2022-07-28T23:56:43.506Z,95674.46
2022-07-28T23:59:14.049Z,95676.23
